sensor_id;sensor_type;location;lat;lon;timestamp;temperature;humidity
30381;DHT22;17169;50.966;11.038;2022-10-31T00:00:40;12.90;99.90
30381;DHT22;17169;50.966;11.038;2022-10-31T00:03:42;12.90;99.90
30381;DHT22;17169;50.966;11.038;2022-10-31T00:06:44;12.90;99.90
30381;DHT22;17169;50.966;11.038;2022-10-31T00:09:47;12.90;99.90
30381;DHT22;17169;50.966;11.038;2022-10-31T00:12:51;12.90;99.90
30381;DHT22;17169;50.966;11.038;2022-10-31T00:15:53;12.80;99.90
30381;DHT22;17169;50.966;11.038;2022-10-31T00:18:58;12.80;99.90
30381;DHT22;17169;50.966;11.038;2022-10-31T00:22:00;12.80;99.90
30381;DHT22;17169;50.966;11.038;2022-10-31T00:25:03;12.80;99.90
30381;DHT22;17169;50.966;11.038;2022-10-31T00:28:08;12.80;99.90
30381;DHT22;17169;50.966;11.038;2022-10-31T00:31:12;12.70;99.90
30381;DHT22;17169;50.966;11.038;2022-10-31T00:34:14;12.70;99.90
30381;DHT22;17169;50.966;11.038;2022-10-31T00:37:16;12.70;99.90
30381;DHT22;17169;50.966;11.038;2022-10-31T00:40:19;12.70;99.90
30381;DHT22;17169;50.966;11.038;2022-10-31T00:43:23;12.60;99.90
30381;DHT22;17169;50.966;11.038;2022-10-31T00:46:25;12.60;99.90
30381;DHT22;17169;50.966;11.038;2022-10-31T00:49:27;12.50;99.90
30381;DHT22;17169;50.966;11.038;2022-10-31T00:52:30;12.50;99.90
30381;DHT22;17169;50.966;11.038;2022-10-31T00:55:32;12.50;99.90
30381;DHT22;17169;50.966;11.038;2022-10-31T00:58:36;12.50;99.90
30381;DHT22;17169;50.966;11.038;2022-10-31T01:01:39;12.40;99.90
30381;DHT22;17169;50.966;11.038;2022-10-31T01:04:41;12.40;99.90
30381;DHT22;17169;50.966;11.038;2022-10-31T01:07:44;12.40;99.90
30381;DHT22;17169;50.966;11.038;2022-10-31T01:10:46;12.30;99.90
30381;DHT22;17169;50.966;11.038;2022-10-31T01:13:51;12.30;99.90
30381;DHT22;17169;50.966;11.038;2022-10-31T01:16:54;12.30;99.90
30381;DHT22;17169;50.966;11.038;2022-10-31T01:19:56;12.30;99.90
30381;DHT22;17169;50.966;11.038;2022-10-31T01:22:59;12.20;99.90
30381;DHT22;17169;50.966;11.038;2022-10-31T01:26:04;12.20;99.90
30381;DHT22;17169;50.966;11.038;2022-10-31T01:29:09;12.20;99.90
30381;DHT22;17169;50.966;11.038;2022-10-31T01:32:11;12.20;99.90
30381;DHT22;17169;50.966;11.038;2022-10-31T01:35:13;12.20;99.90
30381;DHT22;17169;50.966;11.038;2022-10-31T01:38:16;12.20;99.90
30381;DHT22;17169;50.966;11.038;2022-10-31T01:41:20;12.10;99.90
30381;DHT22;17169;50.966;11.038;2022-10-31T01:44:50;12.10;99.90
30381;DHT22;17169;50.966;11.038;2022-10-31T01:47:53;12.10;99.90
30381;DHT22;17169;50.966;11.038;2022-10-31T01:50:56;12.10;99.90
30381;DHT22;17169;50.966;11.038;2022-10-31T01:54:01;12.00;99.90
30381;DHT22;17169;50.966;11.038;2022-10-31T01:57:04;12.00;99.90
30381;DHT22;17169;50.966;11.038;2022-10-31T02:00:11;12.00;99.90
30381;DHT22;17169;50.966;11.038;2022-10-31T02:03:14;12.00;99.90
30381;DHT22;17169;50.966;11.038;2022-10-31T02:06:31;11.90;99.90
30381;DHT22;17169;50.966;11.038;2022-10-31T02:09:35;11.80;99.90
30381;DHT22;17169;50.966;11.038;2022-10-31T02:12:39;11.80;99.90
30381;DHT22;17169;50.966;11.038;2022-10-31T02:15:46;11.80;99.90
30381;DHT22;17169;50.966;11.038;2022-10-31T02:18:49;11.80;99.90
30381;DHT22;17169;50.966;11.038;2022-10-31T02:21:56;11.80;99.90
30381;DHT22;17169;50.966;11.038;2022-10-31T02:25:20;11.80;99.90
30381;DHT22;17169;50.966;11.038;2022-10-31T02:28:43;11.80;99.90
30381;DHT22;17169;50.966;11.038;2022-10-31T02:31:58;11.80;99.90
30381;DHT22;17169;50.966;11.038;2022-10-31T02:35:10;11.80;99.90
30381;DHT22;17169;50.966;11.038;2022-10-31T02:38:25;11.80;99.90
30381;DHT22;17169;50.966;11.038;2022-10-31T02:41:34;11.80;99.90
30381;DHT22;17169;50.966;11.038;2022-10-31T02:44:44;11.80;99.90
30381;DHT22;17169;50.966;11.038;2022-10-31T02:47:50;11.80;99.90
30381;DHT22;17169;50.966;11.038;2022-10-31T02:50:57;11.70;99.90
30381;DHT22;17169;50.966;11.038;2022-10-31T02:54:00;11.70;99.90
30381;DHT22;17169;50.966;11.038;2022-10-31T02:57:05;11.70;99.90
30381;DHT22;17169;50.966;11.038;2022-10-31T03:00:09;11.70;99.90
30381;DHT22;17169;50.966;11.038;2022-10-31T03:03:15;11.70;99.90
30381;DHT22;17169;50.966;11.038;2022-10-31T03:06:24;11.60;99.90
30381;DHT22;17169;50.966;11.038;2022-10-31T03:09:35;11.60;99.90
30381;DHT22;17169;50.966;11.038;2022-10-31T03:12:47;11.60;99.90
30381;DHT22;17169;50.966;11.038;2022-10-31T03:15:54;11.50;99.90
30381;DHT22;17169;50.966;11.038;2022-10-31T03:19:02;11.60;99.90
30381;DHT22;17169;50.966;11.038;2022-10-31T03:22:10;11.50;99.90
30381;DHT22;17169;50.966;11.038;2022-10-31T03:25:17;11.60;99.90
30381;DHT22;17169;50.966;11.038;2022-10-31T03:28:23;11.60;99.90
30381;DHT22;17169;50.966;11.038;2022-10-31T03:31:30;11.60;99.90
30381;DHT22;17169;50.966;11.038;2022-10-31T03:34:35;11.60;99.90
30381;DHT22;17169;50.966;11.038;2022-10-31T03:37:39;11.60;99.90
30381;DHT22;17169;50.966;11.038;2022-10-31T03:40:45;11.60;99.90
30381;DHT22;17169;50.966;11.038;2022-10-31T03:43:55;11.50;99.90
30381;DHT22;17169;50.966;11.038;2022-10-31T03:47:01;11.60;99.90
30381;DHT22;17169;50.966;11.038;2022-10-31T03:50:06;11.50;99.90
30381;DHT22;17169;50.966;11.038;2022-10-31T03:53:13;11.60;99.90
30381;DHT22;17169;50.966;11.038;2022-10-31T03:56:21;11.50;99.90
30381;DHT22;17169;50.966;11.038;2022-10-31T03:59:26;11.50;99.90
30381;DHT22;17169;50.966;11.038;2022-10-31T04:02:32;11.50;99.90
30381;DHT22;17169;50.966;11.038;2022-10-31T04:05:37;11.50;99.90
30381;DHT22;17169;50.966;11.038;2022-10-31T04:08:43;11.50;99.90
30381;DHT22;17169;50.966;11.038;2022-10-31T04:11:51;11.50;99.90
30381;DHT22;17169;50.966;11.038;2022-10-31T04:14:55;11.40;99.90
30381;DHT22;17169;50.966;11.038;2022-10-31T04:17:59;11.50;99.90
30381;DHT22;17169;50.966;11.038;2022-10-31T04:21:06;11.40;99.90
30381;DHT22;17169;50.966;11.038;2022-10-31T04:24:09;11.40;99.90
30381;DHT22;17169;50.966;11.038;2022-10-31T04:27:11;11.40;99.90
30381;DHT22;17169;50.966;11.038;2022-10-31T04:30:13;11.30;99.90
30381;DHT22;17169;50.966;11.038;2022-10-31T04:33:16;11.30;99.90
30381;DHT22;17169;50.966;11.038;2022-10-31T04:36:20;11.30;99.90
30381;DHT22;17169;50.966;11.038;2022-10-31T04:39:23;11.30;99.90
30381;DHT22;17169;50.966;11.038;2022-10-31T04:42:26;11.30;99.90
30381;DHT22;17169;50.966;11.038;2022-10-31T04:45:30;11.30;99.90
30381;DHT22;17169;50.966;11.038;2022-10-31T04:48:33;11.20;99.90
30381;DHT22;17169;50.966;11.038;2022-10-31T04:51:36;11.20;99.90
30381;DHT22;17169;50.966;11.038;2022-10-31T04:54:39;11.10;99.90
30381;DHT22;17169;50.966;11.038;2022-10-31T04:57:41;11.10;99.90
30381;DHT22;17169;50.966;11.038;2022-10-31T05:00:44;11.10;99.90
30381;DHT22;17169;50.966;11.038;2022-10-31T05:03:46;11.10;99.90
30381;DHT22;17169;50.966;11.038;2022-10-31T05:06:50;11.10;99.90
30381;DHT22;17169;50.966;11.038;2022-10-31T05:09:52;11.10;99.90
30381;DHT22;17169;50.966;11.038;2022-10-31T05:12:56;11.00;99.90
30381;DHT22;17169;50.966;11.038;2022-10-31T05:15:59;11.00;99.90
30381;DHT22;17169;50.966;11.038;2022-10-31T05:19:01;11.00;99.90
30381;DHT22;17169;50.966;11.038;2022-10-31T05:22:05;10.90;99.90
30381;DHT22;17169;50.966;11.038;2022-10-31T05:25:08;10.80;99.90
30381;DHT22;17169;50.966;11.038;2022-10-31T05:28:10;10.80;99.90
30381;DHT22;17169;50.966;11.038;2022-10-31T05:31:12;10.70;99.90
30381;DHT22;17169;50.966;11.038;2022-10-31T05:34:15;10.70;99.90
30381;DHT22;17169;50.966;11.038;2022-10-31T05:37:18;10.70;99.90
30381;DHT22;17169;50.966;11.038;2022-10-31T05:40:21;10.70;99.90
30381;DHT22;17169;50.966;11.038;2022-10-31T05:43:24;10.70;99.90
30381;DHT22;17169;50.966;11.038;2022-10-31T05:46:26;10.60;99.90
30381;DHT22;17169;50.966;11.038;2022-10-31T05:49:28;10.60;99.90
30381;DHT22;17169;50.966;11.038;2022-10-31T05:52:33;10.50;99.90
30381;DHT22;17169;50.966;11.038;2022-10-31T05:55:35;10.50;99.90
30381;DHT22;17169;50.966;11.038;2022-10-31T05:58:37;10.50;99.90
30381;DHT22;17169;50.966;11.038;2022-10-31T06:01:40;10.40;99.90
30381;DHT22;17169;50.966;11.038;2022-10-31T06:04:42;10.40;99.90
30381;DHT22;17169;50.966;11.038;2022-10-31T06:07:46;10.40;99.90
30381;DHT22;17169;50.966;11.038;2022-10-31T06:10:48;10.40;99.90
30381;DHT22;17169;50.966;11.038;2022-10-31T06:13:51;10.50;99.90
30381;DHT22;17169;50.966;11.038;2022-10-31T06:16:54;10.50;99.90
30381;DHT22;17169;50.966;11.038;2022-10-31T06:19:56;10.50;99.90
30381;DHT22;17169;50.966;11.038;2022-10-31T06:23:00;10.50;99.90
30381;DHT22;17169;50.966;11.038;2022-10-31T06:26:03;10.50;99.90
30381;DHT22;17169;50.966;11.038;2022-10-31T06:29:05;10.40;99.90
30381;DHT22;17169;50.966;11.038;2022-10-31T06:32:10;10.50;99.90
30381;DHT22;17169;50.966;11.038;2022-10-31T06:35:12;10.50;99.90
30381;DHT22;17169;50.966;11.038;2022-10-31T06:38:16;10.50;99.90
30381;DHT22;17169;50.966;11.038;2022-10-31T06:41:18;10.60;99.90
30381;DHT22;17169;50.966;11.038;2022-10-31T06:44:21;10.60;99.90
30381;DHT22;17169;50.966;11.038;2022-10-31T06:47:23;10.70;99.90
30381;DHT22;17169;50.966;11.038;2022-10-31T06:50:26;10.70;99.90
30381;DHT22;17169;50.966;11.038;2022-10-31T06:53:29;10.70;99.90
30381;DHT22;17169;50.966;11.038;2022-10-31T06:56:32;10.80;99.90
30381;DHT22;17169;50.966;11.038;2022-10-31T06:59:34;10.80;99.90
30381;DHT22;17169;50.966;11.038;2022-10-31T07:02:36;10.80;99.90
30381;DHT22;17169;50.966;11.038;2022-10-31T07:05:39;10.90;99.90
30381;DHT22;17169;50.966;11.038;2022-10-31T07:08:43;10.90;99.90
30381;DHT22;17169;50.966;11.038;2022-10-31T07:11:45;11.00;99.90
30381;DHT22;17169;50.966;11.038;2022-10-31T07:14:47;11.10;99.90
30381;DHT22;17169;50.966;11.038;2022-10-31T07:17:50;11.10;99.90
30381;DHT22;17169;50.966;11.038;2022-10-31T07:20:53;11.20;99.90
30381;DHT22;17169;50.966;11.038;2022-10-31T07:23:57;11.20;99.90
30381;DHT22;17169;50.966;11.038;2022-10-31T07:26:59;11.30;99.90
30381;DHT22;17169;50.966;11.038;2022-10-31T07:30:02;11.40;99.90
30381;DHT22;17169;50.966;11.038;2022-10-31T07:33:05;11.40;99.90
30381;DHT22;17169;50.966;11.038;2022-10-31T07:36:07;11.50;99.90
30381;DHT22;17169;50.966;11.038;2022-10-31T07:39:11;11.50;99.90
30381;DHT22;17169;50.966;11.038;2022-10-31T07:42:13;11.60;99.90
30381;DHT22;17169;50.966;11.038;2022-10-31T07:45:18;11.70;99.90
30381;DHT22;17169;50.966;11.038;2022-10-31T07:48:21;11.80;99.90
30381;DHT22;17169;50.966;11.038;2022-10-31T07:51:23;11.80;99.90
30381;DHT22;17169;50.966;11.038;2022-10-31T07:54:27;11.90;99.90
30381;DHT22;17169;50.966;11.038;2022-10-31T07:57:29;12.00;99.90
30381;DHT22;17169;50.966;11.038;2022-10-31T08:00:33;12.10;99.90
30381;DHT22;17169;50.966;11.038;2022-10-31T08:03:36;12.20;99.90
30381;DHT22;17169;50.966;11.038;2022-10-31T08:06:38;12.30;99.90
30381;DHT22;17169;50.966;11.038;2022-10-31T08:09:42;12.40;99.90
30381;DHT22;17169;50.966;11.038;2022-10-31T08:12:44;12.50;99.90
30381;DHT22;17169;50.966;11.038;2022-10-31T08:15:47;12.50;99.90
30381;DHT22;17169;50.966;11.038;2022-10-31T08:18:51;12.60;99.90
30381;DHT22;17169;50.966;11.038;2022-10-31T08:21:54;12.80;99.90
30381;DHT22;17169;50.966;11.038;2022-10-31T08:24:58;12.80;99.90
30381;DHT22;17169;50.966;11.038;2022-10-31T08:28:00;12.90;99.90
30381;DHT22;17169;50.966;11.038;2022-10-31T08:31:03;13.00;99.90
30381;DHT22;17169;50.966;11.038;2022-10-31T08:34:05;13.10;99.90
30381;DHT22;17169;50.966;11.038;2022-10-31T08:37:08;13.30;99.90
30381;DHT22;17169;50.966;11.038;2022-10-31T08:40:12;13.30;99.90
30381;DHT22;17169;50.966;11.038;2022-10-31T08:43:15;13.40;99.90
30381;DHT22;17169;50.966;11.038;2022-10-31T08:46:18;13.50;99.90
30381;DHT22;17169;50.966;11.038;2022-10-31T08:49:21;13.60;99.90
30381;DHT22;17169;50.966;11.038;2022-10-31T08:52:23;13.70;99.90
30381;DHT22;17169;50.966;11.038;2022-10-31T08:55:28;13.80;99.90
30381;DHT22;17169;50.966;11.038;2022-10-31T08:58:30;13.90;99.90
30381;DHT22;17169;50.966;11.038;2022-10-31T09:01:33;14.00;99.90
30381;DHT22;17169;50.966;11.038;2022-10-31T09:04:35;14.20;99.90
30381;DHT22;17169;50.966;11.038;2022-10-31T09:07:37;14.20;99.90
30381;DHT22;17169;50.966;11.038;2022-10-31T09:10:42;14.30;99.90
30381;DHT22;17169;50.966;11.038;2022-10-31T09:13:44;14.50;99.90
30381;DHT22;17169;50.966;11.038;2022-10-31T09:16:46;14.60;99.90
30381;DHT22;17169;50.966;11.038;2022-10-31T09:19:49;14.70;99.90
30381;DHT22;17169;50.966;11.038;2022-10-31T09:22:55;14.70;99.90
30381;DHT22;17169;50.966;11.038;2022-10-31T09:26:00;14.90;99.90
30381;DHT22;17169;50.966;11.038;2022-10-31T09:29:03;15.10;99.90
30381;DHT22;17169;50.966;11.038;2022-10-31T09:32:05;15.10;99.90
30381;DHT22;17169;50.966;11.038;2022-10-31T09:35:08;15.20;99.90
30381;DHT22;17169;50.966;11.038;2022-10-31T09:38:12;15.40;99.90
30381;DHT22;17169;50.966;11.038;2022-10-31T09:41:21;15.50;99.90
30381;DHT22;17169;50.966;11.038;2022-10-31T09:44:36;15.60;99.90
30381;DHT22;17169;50.966;11.038;2022-10-31T09:47:50;15.70;99.90
30381;DHT22;17169;50.966;11.038;2022-10-31T09:50:58;15.80;99.90
30381;DHT22;17169;50.966;11.038;2022-10-31T09:54:04;15.90;99.90
30381;DHT22;17169;50.966;11.038;2022-10-31T09:57:13;16.00;99.90
30381;DHT22;17169;50.966;11.038;2022-10-31T10:00:18;16.10;99.90
30381;DHT22;17169;50.966;11.038;2022-10-31T10:03:30;16.20;99.90
30381;DHT22;17169;50.966;11.038;2022-10-31T10:06:35;16.30;99.90
30381;DHT22;17169;50.966;11.038;2022-10-31T10:09:43;16.40;99.90
30381;DHT22;17169;50.966;11.038;2022-10-31T10:13:01;16.50;99.90
30381;DHT22;17169;50.966;11.038;2022-10-31T10:16:24;16.60;99.90
30381;DHT22;17169;50.966;11.038;2022-10-31T10:20:04;16.70;99.90
30381;DHT22;17169;50.966;11.038;2022-10-31T10:23:29;16.80;99.90
30381;DHT22;17169;50.966;11.038;2022-10-31T10:26:37;16.90;99.90
30381;DHT22;17169;50.966;11.038;2022-10-31T10:29:46;17.00;99.90
30381;DHT22;17169;50.966;11.038;2022-10-31T10:32:54;17.10;99.90
30381;DHT22;17169;50.966;11.038;2022-10-31T10:36:00;17.10;99.90
30381;DHT22;17169;50.966;11.038;2022-10-31T10:39:04;17.20;99.90
30381;DHT22;17169;50.966;11.038;2022-10-31T10:42:12;17.30;99.90
30381;DHT22;17169;50.966;11.038;2022-10-31T10:45:34;17.30;99.90
30381;DHT22;17169;50.966;11.038;2022-10-31T10:48:58;17.40;99.90
30381;DHT22;17169;50.966;11.038;2022-10-31T10:52:08;17.40;99.90
30381;DHT22;17169;50.966;11.038;2022-10-31T10:55:19;17.50;99.90
30381;DHT22;17169;50.966;11.038;2022-10-31T10:58:25;17.50;99.90
30381;DHT22;17169;50.966;11.038;2022-10-31T11:01:29;17.50;99.90
30381;DHT22;17169;50.966;11.038;2022-10-31T11:04:33;17.60;99.90
30381;DHT22;17169;50.966;11.038;2022-10-31T11:07:39;17.60;99.90
30381;DHT22;17169;50.966;11.038;2022-10-31T11:10:42;17.70;99.90
30381;DHT22;17169;50.966;11.038;2022-10-31T11:13:46;17.70;99.90
30381;DHT22;17169;50.966;11.038;2022-10-31T11:17:07;17.70;99.90
30381;DHT22;17169;50.966;11.038;2022-10-31T11:20:26;17.80;99.90
30381;DHT22;17169;50.966;11.038;2022-10-31T11:23:32;17.80;99.90
30381;DHT22;17169;50.966;11.038;2022-10-31T11:26:35;17.90;99.90
30381;DHT22;17169;50.966;11.038;2022-10-31T11:29:39;17.90;99.90
30381;DHT22;17169;50.966;11.038;2022-10-31T11:32:48;18.00;99.90
30381;DHT22;17169;50.966;11.038;2022-10-31T11:35:53;18.00;99.90
30381;DHT22;17169;50.966;11.038;2022-10-31T11:38:56;18.10;99.90
30381;DHT22;17169;50.966;11.038;2022-10-31T11:42:01;18.10;99.90
30381;DHT22;17169;50.966;11.038;2022-10-31T11:45:06;18.20;99.90
30381;DHT22;17169;50.966;11.038;2022-10-31T11:48:17;18.30;99.90
30381;DHT22;17169;50.966;11.038;2022-10-31T11:51:21;18.40;99.90
30381;DHT22;17169;50.966;11.038;2022-10-31T11:54:26;18.40;99.90
30381;DHT22;17169;50.966;11.038;2022-10-31T11:57:32;18.50;99.90
30381;DHT22;17169;50.966;11.038;2022-10-31T12:00:37;18.50;99.90
30381;DHT22;17169;50.966;11.038;2022-10-31T12:03:50;18.60;99.90
30381;DHT22;17169;50.966;11.038;2022-10-31T12:06:54;18.60;99.90
30381;DHT22;17169;50.966;11.038;2022-10-31T12:09:57;18.70;99.90
30381;DHT22;17169;50.966;11.038;2022-10-31T12:13:08;18.70;99.90
30381;DHT22;17169;50.966;11.038;2022-10-31T12:16:19;18.80;99.90
30381;DHT22;17169;50.966;11.038;2022-10-31T12:19:32;18.80;99.90
30381;DHT22;17169;50.966;11.038;2022-10-31T12:22:42;18.90;99.90
30381;DHT22;17169;50.966;11.038;2022-10-31T12:25:51;19.00;99.90
30381;DHT22;17169;50.966;11.038;2022-10-31T12:29:04;19.00;99.90
30381;DHT22;17169;50.966;11.038;2022-10-31T12:32:19;19.00;99.90
30381;DHT22;17169;50.966;11.038;2022-10-31T12:35:34;19.00;99.90
30381;DHT22;17169;50.966;11.038;2022-10-31T12:38:50;19.10;99.90
30381;DHT22;17169;50.966;11.038;2022-10-31T12:42:04;19.10;99.90
30381;DHT22;17169;50.966;11.038;2022-10-31T12:45:24;19.20;99.90
30381;DHT22;17169;50.966;11.038;2022-10-31T12:49:01;19.20;99.90
30381;DHT22;17169;50.966;11.038;2022-10-31T12:52:18;19.20;99.90
30381;DHT22;17169;50.966;11.038;2022-10-31T12:55:40;19.20;99.90
30381;DHT22;17169;50.966;11.038;2022-10-31T12:58:46;19.30;99.90
30381;DHT22;17169;50.966;11.038;2022-10-31T13:01:55;19.30;99.90
30381;DHT22;17169;50.966;11.038;2022-10-31T13:05:02;19.40;99.90
30381;DHT22;17169;50.966;11.038;2022-10-31T13:08:10;19.40;99.90
30381;DHT22;17169;50.966;11.038;2022-10-31T13:11:19;19.40;99.90
30381;DHT22;17169;50.966;11.038;2022-10-31T13:14:26;19.40;99.90
30381;DHT22;17169;50.966;11.038;2022-10-31T13:17:33;19.40;99.90
30381;DHT22;17169;50.966;11.038;2022-10-31T13:20:40;19.40;99.90
30381;DHT22;17169;50.966;11.038;2022-10-31T13:23:47;19.40;99.90
30381;DHT22;17169;50.966;11.038;2022-10-31T13:26:53;19.40;99.90
30381;DHT22;17169;50.966;11.038;2022-10-31T13:30:01;19.40;99.90
30381;DHT22;17169;50.966;11.038;2022-10-31T13:33:11;19.40;99.90
30381;DHT22;17169;50.966;11.038;2022-10-31T13:36:24;19.40;99.90
30381;DHT22;17169;50.966;11.038;2022-10-31T13:39:40;19.40;99.90
30381;DHT22;17169;50.966;11.038;2022-10-31T13:42:55;19.40;99.90
30381;DHT22;17169;50.966;11.038;2022-10-31T13:46:00;19.40;99.90
30381;DHT22;17169;50.966;11.038;2022-10-31T13:49:02;19.30;99.90
30381;DHT22;17169;50.966;11.038;2022-10-31T13:52:15;19.30;99.90
30381;DHT22;17169;50.966;11.038;2022-10-31T13:55:40;19.30;99.90
30381;DHT22;17169;50.966;11.038;2022-10-31T14:02:16;19.30;99.90
30381;DHT22;17169;50.966;11.038;2022-10-31T14:05:22;19.30;99.90
30381;DHT22;17169;50.966;11.038;2022-10-31T14:08:25;19.30;99.90
30381;DHT22;17169;50.966;11.038;2022-10-31T14:11:30;19.30;99.90
30381;DHT22;17169;50.966;11.038;2022-10-31T14:14:45;19.30;99.90
30381;DHT22;17169;50.966;11.038;2022-10-31T14:17:51;19.20;99.90
30381;DHT22;17169;50.966;11.038;2022-10-31T14:20:54;19.20;99.90
30381;DHT22;17169;50.966;11.038;2022-10-31T14:23:57;19.10;99.90
30381;DHT22;17169;50.966;11.038;2022-10-31T14:27:02;19.10;99.90
30381;DHT22;17169;50.966;11.038;2022-10-31T14:30:14;19.10;99.90
30381;DHT22;17169;50.966;11.038;2022-10-31T14:33:19;19.00;99.90
30381;DHT22;17169;50.966;11.038;2022-10-31T14:36:26;19.00;99.90
30381;DHT22;17169;50.966;11.038;2022-10-31T14:39:37;19.00;99.90
30381;DHT22;17169;50.966;11.038;2022-10-31T14:42:55;18.90;99.90
30381;DHT22;17169;50.966;11.038;2022-10-31T14:46:02;18.80;99.90
30381;DHT22;17169;50.966;11.038;2022-10-31T14:49:18;18.80;99.90
30381;DHT22;17169;50.966;11.038;2022-10-31T14:52:25;18.70;99.90
30381;DHT22;17169;50.966;11.038;2022-10-31T14:55:27;18.60;99.90
30381;DHT22;17169;50.966;11.038;2022-10-31T14:58:36;18.60;99.90
30381;DHT22;17169;50.966;11.038;2022-10-31T15:01:51;18.50;99.90
30381;DHT22;17169;50.966;11.038;2022-10-31T15:04:55;18.50;99.90
30381;DHT22;17169;50.966;11.038;2022-10-31T15:07:58;18.40;99.90
30381;DHT22;17169;50.966;11.038;2022-10-31T15:11:10;18.30;99.90
30381;DHT22;17169;50.966;11.038;2022-10-31T15:14:22;18.30;99.90
30381;DHT22;17169;50.966;11.038;2022-10-31T15:17:26;18.20;99.90
30381;DHT22;17169;50.966;11.038;2022-10-31T15:20:32;18.10;99.90
30381;DHT22;17169;50.966;11.038;2022-10-31T15:23:35;18.00;99.90
30381;DHT22;17169;50.966;11.038;2022-10-31T15:26:39;17.90;99.90
30381;DHT22;17169;50.966;11.038;2022-10-31T15:29:50;17.80;99.90
30381;DHT22;17169;50.966;11.038;2022-10-31T15:32:54;17.70;99.90
30381;DHT22;17169;50.966;11.038;2022-10-31T15:35:57;17.70;99.90
30381;DHT22;17169;50.966;11.038;2022-10-31T15:39:00;17.60;99.90
30381;DHT22;17169;50.966;11.038;2022-10-31T15:42:03;17.60;99.90
30381;DHT22;17169;50.966;11.038;2022-10-31T15:45:17;17.50;99.90
30381;DHT22;17169;50.966;11.038;2022-10-31T15:48:22;17.40;99.90
30381;DHT22;17169;50.966;11.038;2022-10-31T15:51:27;17.30;99.90
30381;DHT22;17169;50.966;11.038;2022-10-31T15:54:30;17.30;99.90
30381;DHT22;17169;50.966;11.038;2022-10-31T15:57:33;17.20;99.90
30381;DHT22;17169;50.966;11.038;2022-10-31T16:00:37;17.20;99.90
30381;DHT22;17169;50.966;11.038;2022-10-31T16:03:40;17.10;99.90
30381;DHT22;17169;50.966;11.038;2022-10-31T16:06:42;17.10;99.90
30381;DHT22;17169;50.966;11.038;2022-10-31T16:09:58;17.00;99.90
30381;DHT22;17169;50.966;11.038;2022-10-31T16:13:01;16.90;99.90
30381;DHT22;17169;50.966;11.038;2022-10-31T16:16:13;16.90;99.90
30381;DHT22;17169;50.966;11.038;2022-10-31T16:19:18;16.80;99.90
30381;DHT22;17169;50.966;11.038;2022-10-31T16:22:22;16.80;99.90
30381;DHT22;17169;50.966;11.038;2022-10-31T16:25:27;16.70;99.90
30381;DHT22;17169;50.966;11.038;2022-10-31T16:28:36;16.70;99.90
30381;DHT22;17169;50.966;11.038;2022-10-31T16:31:40;16.60;99.90
30381;DHT22;17169;50.966;11.038;2022-10-31T16:34:42;16.60;99.90
30381;DHT22;17169;50.966;11.038;2022-10-31T16:37:45;16.60;99.90
30381;DHT22;17169;50.966;11.038;2022-10-31T16:40:47;16.50;99.90
30381;DHT22;17169;50.966;11.038;2022-10-31T16:43:50;16.50;99.90
30381;DHT22;17169;50.966;11.038;2022-10-31T16:47:08;16.40;99.90
30381;DHT22;17169;50.966;11.038;2022-10-31T16:50:13;16.40;99.90
30381;DHT22;17169;50.966;11.038;2022-10-31T16:53:16;16.40;99.90
30381;DHT22;17169;50.966;11.038;2022-10-31T16:56:23;16.30;99.90
30381;DHT22;17169;50.966;11.038;2022-10-31T16:59:29;16.20;99.90
30381;DHT22;17169;50.966;11.038;2022-10-31T17:02:34;16.20;99.90
30381;DHT22;17169;50.966;11.038;2022-10-31T17:05:36;16.20;99.90
30381;DHT22;17169;50.966;11.038;2022-10-31T17:08:39;16.10;99.90
30381;DHT22;17169;50.966;11.038;2022-10-31T17:11:45;16.10;99.90
30381;DHT22;17169;50.966;11.038;2022-10-31T17:14:49;16.00;99.90
30381;DHT22;17169;50.966;11.038;2022-10-31T17:17:54;16.00;99.90
30381;DHT22;17169;50.966;11.038;2022-10-31T17:20:58;16.00;99.90
30381;DHT22;17169;50.966;11.038;2022-10-31T17:24:01;16.00;99.90
30381;DHT22;17169;50.966;11.038;2022-10-31T17:27:04;15.90;99.90
30381;DHT22;17169;50.966;11.038;2022-10-31T17:30:07;15.90;99.90
30381;DHT22;17169;50.966;11.038;2022-10-31T17:33:12;15.90;99.90
30381;DHT22;17169;50.966;11.038;2022-10-31T17:36:15;15.80;99.90
30381;DHT22;17169;50.966;11.038;2022-10-31T17:39:18;15.80;99.90
30381;DHT22;17169;50.966;11.038;2022-10-31T17:42:20;15.80;99.90
30381;DHT22;17169;50.966;11.038;2022-10-31T17:45:24;15.70;99.90
30381;DHT22;17169;50.966;11.038;2022-10-31T17:48:28;15.70;99.90
30381;DHT22;17169;50.966;11.038;2022-10-31T17:51:31;15.70;99.90
30381;DHT22;17169;50.966;11.038;2022-10-31T17:54:33;15.70;99.90
30381;DHT22;17169;50.966;11.038;2022-10-31T17:57:35;15.70;99.90
30381;DHT22;17169;50.966;11.038;2022-10-31T18:00:39;15.70;99.90
30381;DHT22;17169;50.966;11.038;2022-10-31T18:03:43;15.60;99.90
30381;DHT22;17169;50.966;11.038;2022-10-31T18:06:46;15.60;99.90
30381;DHT22;17169;50.966;11.038;2022-10-31T18:09:49;15.60;99.90
30381;DHT22;17169;50.966;11.038;2022-10-31T18:12:52;15.60;99.90
30381;DHT22;17169;50.966;11.038;2022-10-31T18:15:54;15.60;99.90
30381;DHT22;17169;50.966;11.038;2022-10-31T18:18:58;15.50;99.90
30381;DHT22;17169;50.966;11.038;2022-10-31T18:22:01;15.40;99.90
30381;DHT22;17169;50.966;11.038;2022-10-31T18:25:05;15.40;99.90
30381;DHT22;17169;50.966;11.038;2022-10-31T18:28:07;15.30;99.90
30381;DHT22;17169;50.966;11.038;2022-10-31T18:31:10;15.30;99.90
30381;DHT22;17169;50.966;11.038;2022-10-31T18:34:14;15.20;99.90
30381;DHT22;17169;50.966;11.038;2022-10-31T18:37:16;15.20;99.90
30381;DHT22;17169;50.966;11.038;2022-10-31T18:40:19;15.10;99.90
30381;DHT22;17169;50.966;11.038;2022-10-31T18:43:22;15.10;99.90
30381;DHT22;17169;50.966;11.038;2022-10-31T18:46:26;15.10;99.90
30381;DHT22;17169;50.966;11.038;2022-10-31T18:49:29;15.00;99.90
30381;DHT22;17169;50.966;11.038;2022-10-31T18:52:33;15.00;99.90
30381;DHT22;17169;50.966;11.038;2022-10-31T18:55:38;15.00;99.90
30381;DHT22;17169;50.966;11.038;2022-10-31T18:58:40;14.90;99.90
30381;DHT22;17169;50.966;11.038;2022-10-31T19:01:43;14.90;99.90
30381;DHT22;17169;50.966;11.038;2022-10-31T19:04:46;14.80;99.90
30381;DHT22;17169;50.966;11.038;2022-10-31T19:07:49;14.80;99.90
30381;DHT22;17169;50.966;11.038;2022-10-31T19:10:51;14.80;99.90
30381;DHT22;17169;50.966;11.038;2022-10-31T19:13:55;14.80;99.90
30381;DHT22;17169;50.966;11.038;2022-10-31T19:16:57;14.70;99.90